This is the latest recevied weather packets stored in our database for station/object F5PQL-4. If no packets are shown the sender has not sent any weather packets the latest 10 day(s).
| Time | Temp. | Humidity | Pressure | Rain* | Wind** | Luminosity | Snow |
|---|---|---|---|---|---|---|---|
| 1777890089 | 15° C | 73% | 1016.2 hPa | - | - | - | - |
| 1777889189 | 14.44° C | 74% | 1016.1 hPa | - | - | - | - |
| 1777888289 | 14.44° C | 73% | 1016.2 hPa | - | - | - | - |
| 1777887389 | 13.89° C | 72% | 1016.1 hPa | - | - | - | - |
| 1777887389 | 13.89° C | 72% | 1016.1 hPa | - | - | - | - |
| 1777886489 | 13.89° C | 71% | 1016 hPa | - | - | - | - |
| 1777885589 | 13.89° C | 70% | 1016 hPa | - | - | - | - |
| 1777884689 | 14.44° C | 69% | 1015.9 hPa | - | - | - | - |
| 1777883789 | 16.11° C | 63% | 1015.7 hPa | - | - | - | - |
| 1777882889 | 16.67° C | 65% | 1015.4 hPa | - | - | - | - |
| 1777881988 | 15.56° C | 67% | 1015.4 hPa | - | - | - | - |
| 1777881088 | 15° C | 69% | 1015.6 hPa | - | - | - | - |
| 1777880188 | 15° C | 69% | 1015.3 hPa | - | - | - | - |
| 1777879288 | 14.44° C | 69% | 1015.3 hPa | - | - | - | - |
| 1777878388 | 13.89° C | 70% | 1015.2 hPa | - | - | - | - |
| 1777877488 | 13.89° C | 69% | 1015.2 hPa | - | - | - | - |
| 1777876588 | 13.89° C | 68% | 1015.2 hPa | - | - | - | - |
| 1777875688 | 13.89° C | 68% | 1014.9 hPa | - | - | - | - |
| 1777874792 | 13.89° C | 67% | 1015 hPa | - | - | - | - |
| 1777873892 | 14.44° C | 66% | 1015.1 hPa | - | - | - | - |
| 1777872992 | 13.89° C | 66% | 1014.9 hPa | - | - | - | - |
| 1777872092 | 13.89° C | 65% | 1014.8 hPa | - | - | - | - |
| 1777871192 | 14.44° C | 65% | 1014.7 hPa | - | - | - | - |
| 1777870291 | 14.44° C | 63% | 1014.8 hPa | - | - | - | - |
| 1777869391 | 15° C | 62% | 1014.5 hPa | - | - | - | - |
* Rain since midnight (hover to see other rain measurements)
** Current wind speed in m/s (hover to see current wind gust speed)